createdAt,value
2023-03-12T00:00:12.256Z,54.20
2023-03-12T00:02:38.948Z,54.20
2023-03-12T00:05:05.937Z,54.20
2023-03-12T00:07:32.642Z,54.00
2023-03-12T00:09:59.305Z,54.10
2023-03-12T00:12:25.996Z,54.10
2023-03-12T00:14:52.699Z,54.20
2023-03-12T00:17:22.461Z,54.20
2023-03-12T00:19:53.013Z,54.30
2023-03-12T00:22:23.052Z,54.30
2023-03-12T00:24:53.284Z,54.10
2023-03-12T00:27:20.113Z,54.30
2023-03-12T00:29:46.801Z,54.00
2023-03-12T00:32:13.451Z,54.20
2023-03-12T00:34:50.579Z,54.20
2023-03-12T00:37:17.264Z,54.30
2023-03-12T00:39:53.378Z,54.20
2023-03-12T00:42:20.009Z,54.20
2023-03-12T00:44:46.718Z,54.00
2023-03-12T00:47:13.362Z,54.20
2023-03-12T00:49:40.073Z,54.00
2023-03-12T00:52:06.731Z,54.00
2023-03-12T00:54:33.455Z,54.00
2023-03-12T00:57:00.114Z,53.90
2023-03-12T00:59:26.913Z,54.00
2023-03-12T01:01:53.538Z,53.90
2023-03-12T01:04:26.405Z,53.90
2023-03-12T01:06:56.217Z,53.90
2023-03-12T01:09:22.880Z,53.90
2023-03-12T01:11:49.538Z,53.90
2023-03-12T01:14:19.216Z,53.90
2023-03-12T01:16:45.936Z,53.90
2023-03-12T01:19:12.844Z,53.90
2023-03-12T01:21:39.799Z,53.90
2023-03-12T01:24:06.796Z,54.00
2023-03-12T01:26:33.491Z,54.00
2023-03-12T01:29:00.143Z,54.00
2023-03-12T01:31:26.944Z,53.90
2023-03-12T01:33:53.665Z,53.90
2023-03-12T01:36:24.501Z,53.90
2023-03-12T01:38:51.782Z,53.90
2023-03-12T01:41:18.583Z,53.90
2023-03-12T01:43:45.294Z,54.00
2023-03-12T01:46:28.278Z,53.90
2023-03-12T01:48:59.547Z,53.80
2023-03-12T01:51:27.529Z,54.60
2023-03-12T01:53:58.110Z,53.90
2023-03-12T01:56:32.338Z,53.90
2023-03-12T01:59:01.394Z,53.90
2023-03-12T02:01:28.221Z,53.80
2023-03-12T02:03:54.946Z,53.80
2023-03-12T02:06:23.694Z,53.90
2023-03-12T02:08:50.324Z,53.90
2023-03-12T02:11:23.059Z,53.70
2023-03-12T02:13:49.686Z,53.80
2023-03-12T02:16:24.854Z,53.70
2023-03-12T02:18:51.592Z,53.70
2023-03-12T02:21:27.612Z,53.80
2023-03-12T02:24:20.746Z,53.70
2023-03-12T02:26:48.452Z,53.90
2023-03-12T02:29:15.148Z,53.80
2023-03-12T02:31:52.447Z,53.70
2023-03-12T02:34:19.125Z,53.90
2023-03-12T02:36:46.113Z,53.70
2023-03-12T02:39:12.897Z,53.70
2023-03-12T02:41:46.481Z,53.70
2023-03-12T02:44:14.645Z,53.80
2023-03-12T02:46:49.229Z,54.40
2023-03-12T02:49:22.591Z,53.70
2023-03-12T02:51:55.449Z,53.70
2023-03-12T02:54:22.304Z,53.70
2023-03-12T02:56:55.356Z,53.70
2023-03-12T02:59:28.232Z,53.70
2023-03-12T03:01:55.602Z,53.70
2023-03-12T03:04:22.472Z,53.60
2023-03-12T03:06:49.489Z,53.60
2023-03-12T03:09:16.743Z,53.50
2023-03-12T03:11:43.512Z,53.70
2023-03-12T03:14:10.330Z,53.50
2023-03-12T03:16:43.123Z,53.50
2023-03-12T03:19:11.409Z,53.70
2023-03-12T03:21:44.322Z,53.50
2023-03-12T03:24:11.233Z,53.70
2023-03-12T03:26:37.948Z,53.60
2023-03-12T03:29:10.899Z,53.50
2023-03-12T03:31:37.667Z,53.60
2023-03-12T03:34:04.373Z,53.50
2023-03-12T03:36:33.432Z,53.60
2023-03-12T03:39:00.168Z,53.50
2023-03-12T03:41:33.220Z,53.50
2023-03-12T03:43:59.953Z,53.50
2023-03-12T03:46:27.367Z,53.60
2023-03-12T03:48:54.135Z,54.10
2023-03-12T03:51:27.018Z,53.50
2023-03-12T03:53:53.732Z,53.50
2023-03-12T03:56:20.523Z,53.60
2023-03-12T03:58:47.260Z,53.50
2023-03-12T04:01:14.511Z,53.60
2023-03-12T04:03:44.288Z,53.50
2023-03-12T04:06:11.038Z,53.50
2023-03-12T04:08:38.026Z,53.50
2023-03-12T04:11:22.855Z,53.40
2023-03-12T04:13:50.183Z,53.50
2023-03-12T04:16:23.438Z,53.50
2023-03-12T04:19:10.433Z,53.40
2023-03-12T04:21:39.599Z,53.50
2023-03-12T04:24:07.398Z,53.30
2023-03-12T04:26:34.113Z,53.40
2023-03-12T04:29:07.013Z,53.40
2023-03-12T04:31:33.907Z,53.40
2023-03-12T04:34:00.622Z,53.40
2023-03-12T04:36:27.346Z,53.30
2023-03-12T04:38:55.718Z,53.40
2023-03-12T04:41:22.624Z,53.90
2023-03-12T04:43:55.417Z,53.40
2023-03-12T04:46:22.228Z,53.40
2023-03-12T04:48:48.929Z,53.40
2023-03-12T04:51:19.135Z,53.40
2023-03-12T04:53:51.922Z,53.40
2023-03-12T04:56:18.619Z,53.40
2023-03-12T04:58:45.360Z,53.40
2023-03-12T05:01:35.576Z,53.30
2023-03-12T05:04:08.531Z,53.40
2023-03-12T05:06:38.330Z,53.30
2023-03-12T05:09:05.089Z,53.50
2023-03-12T05:11:31.826Z,53.40
2023-03-12T05:13:58.638Z,53.30
2023-03-12T05:16:25.326Z,54.00
2023-03-12T05:18:52.101Z,53.30
2023-03-12T05:21:19.238Z,53.30
2023-03-12T05:23:46.184Z,53.20
2023-03-12T05:26:20.011Z,53.20
2023-03-12T05:28:46.768Z,53.20
2023-03-12T05:31:16.627Z,53.20
2023-03-12T05:33:43.372Z,53.20
2023-03-12T05:36:10.423Z,53.20
2023-03-12T05:38:38.247Z,53.20
2023-03-12T05:41:05.013Z,53.20
2023-03-12T05:43:31.826Z,53.10
2023-03-12T05:45:59.369Z,53.20
2023-03-12T05:48:29.253Z,53.80
2023-03-12T05:50:56.719Z,53.10
2023-03-12T05:53:23.627Z,52.50
2023-03-12T05:55:50.322Z,52.90
2023-03-12T05:58:16.982Z,53.20
2023-03-12T06:00:44.416Z,53.30
2023-03-12T06:03:11.251Z,53.40
2023-03-12T06:05:38.019Z,53.00
2023-03-12T06:08:04.833Z,52.70
2023-03-12T06:10:31.483Z,53.30
2023-03-12T06:12:58.129Z,53.20
2023-03-12T06:15:24.726Z,53.90
2023-03-12T06:17:51.352Z,53.40
2023-03-12T06:20:18.134Z,53.30
2023-03-12T06:22:44.766Z,53.70
2023-03-12T06:25:11.507Z,53.20
2023-03-12T06:27:38.300Z,53.30
2023-03-12T06:30:08.710Z,53.30
2023-03-12T06:32:35.622Z,53.30
2023-03-12T06:35:04.467Z,53.30
2023-03-12T06:37:31.247Z,53.40
2023-03-12T06:39:58.023Z,53.50
2023-03-12T06:42:26.691Z,53.40
2023-03-12T06:44:53.873Z,53.40
2023-03-12T06:47:20.685Z,53.50
2023-03-12T06:49:47.497Z,53.40
2023-03-12T06:52:14.296Z,53.40
2023-03-12T06:54:41.059Z,53.40
2023-03-12T06:57:07.776Z,53.30
2023-03-12T06:59:34.567Z,53.40
2023-03-12T07:02:01.965Z,53.40
2023-03-12T07:04:28.719Z,53.20
2023-03-12T07:06:55.408Z,53.40
2023-03-12T07:09:25.377Z,53.30
2023-03-12T07:11:52.174Z,53.40
2023-03-12T07:14:20.328Z,53.40
2023-03-12T07:16:47.404Z,53.30
2023-03-12T07:19:14.360Z,53.40
2023-03-12T07:21:44.090Z,53.40
2023-03-12T07:24:10.847Z,53.30
2023-03-12T07:26:37.633Z,53.30
2023-03-12T07:29:04.840Z,53.30
2023-03-12T07:31:31.579Z,53.40
2023-03-12T07:33:58.449Z,53.30
2023-03-12T07:36:25.375Z,53.30
2023-03-12T07:38:52.258Z,53.40
2023-03-12T07:41:19.099Z,53.20
2023-03-12T07:43:46.011Z,53.30
2023-03-12T07:46:12.929Z,53.30
2023-03-12T07:48:41.520Z,53.30
2023-03-12T07:51:10.367Z,53.30
2023-03-12T07:53:37.096Z,53.30
2023-03-12T07:56:04.028Z,53.30
2023-03-12T07:58:30.893Z,53.40
2023-03-12T08:00:57.747Z,53.40
2023-03-12T08:03:24.810Z,53.30
2023-03-12T08:06:02.538Z,53.30
2023-03-12T08:08:29.453Z,53.40
2023-03-12T08:10:56.188Z,53.30
2023-03-12T08:13:24.219Z,53.30
2023-03-12T08:15:54.331Z,53.20
2023-03-12T08:18:27.406Z,53.20
2023-03-12T08:20:54.238Z,53.10
2023-03-12T08:23:21.010Z,53.10
2023-03-12T08:25:50.829Z,53.00
2023-03-12T08:28:24.251Z,52.90
2023-03-12T08:30:54.928Z,53.10
2023-03-12T08:33:21.818Z,53.10
2023-03-12T08:35:49.008Z,53.00
2023-03-12T08:38:15.865Z,53.00
2023-03-12T08:40:42.592Z,53.00
2023-03-12T08:43:09.417Z,53.00
2023-03-12T08:45:39.236Z,53.00
2023-03-12T08:48:06.117Z,53.00
2023-03-12T08:50:33.487Z,53.00
2023-03-12T08:53:00.174Z,53.00
2023-03-12T08:55:28.228Z,52.90
2023-03-12T08:57:55.462Z,53.00
2023-03-12T09:00:22.368Z,52.90
2023-03-12T09:02:51.321Z,52.90
2023-03-12T09:05:24.876Z,52.90
2023-03-12T09:07:51.637Z,52.80
2023-03-12T09:10:18.365Z,52.80
2023-03-12T09:12:45.211Z,52.70
2023-03-12T09:15:15.002Z,52.80
2023-03-12T09:17:41.765Z,52.70
2023-03-12T09:20:14.679Z,52.70
2023-03-12T09:22:41.551Z,52.70
2023-03-12T09:25:08.847Z,52.60
2023-03-12T09:27:36.615Z,52.70
2023-03-12T09:30:03.477Z,52.60
2023-03-12T09:32:30.249Z,52.70
2023-03-12T09:34:56.997Z,52.60
2023-03-12T09:37:24.395Z,52.70
2023-03-12T09:39:51.547Z,52.60
2023-03-12T09:42:23.116Z,52.70
2023-03-12T09:44:49.817Z,52.70
2023-03-12T09:47:26.964Z,52.70
2023-03-12T09:49:55.183Z,52.70
2023-03-12T09:52:29.855Z,52.70
2023-03-12T09:54:56.620Z,52.70
2023-03-12T09:57:26.349Z,52.60
2023-03-12T09:59:53.075Z,52.70
2023-03-12T10:02:29.720Z,52.70
2023-03-12T10:05:00.025Z,52.70
2023-03-12T10:07:33.307Z,52.70
2023-03-12T10:10:12.449Z,52.60
2023-03-12T10:12:59.655Z,52.70
2023-03-12T10:15:46.693Z,52.60
2023-03-12T10:18:32.315Z,52.70
2023-03-12T10:21:05.062Z,52.60
2023-03-12T10:23:58.203Z,52.60
2023-03-12T10:26:44.177Z,52.50
2023-03-12T10:29:17.795Z,52.50
2023-03-12T10:31:55.360Z,52.60
2023-03-12T10:34:27.524Z,52.50
2023-03-12T10:36:55.170Z,52.50
2023-03-12T10:39:28.008Z,52.50
2023-03-12T10:41:54.780Z,52.50
2023-03-12T10:44:22.450Z,52.50
2023-03-12T10:46:52.455Z,52.50
2023-03-12T10:49:22.255Z,52.40
2023-03-12T10:52:05.208Z,52.40
2023-03-12T10:54:32.921Z,52.40
2023-03-12T10:56:59.829Z,52.40
2023-03-12T10:59:33.738Z,52.40
2023-03-12T11:02:26.753Z,52.40
2023-03-12T11:04:53.659Z,52.40
2023-03-12T11:07:35.883Z,52.40
2023-03-12T11:10:04.003Z,52.50
2023-03-12T11:12:30.974Z,52.50
2023-03-12T11:14:58.011Z,52.50
2023-03-12T11:17:33.017Z,52.40
2023-03-12T11:19:59.805Z,52.50
2023-03-12T11:22:33.483Z,52.50
2023-03-12T11:25:01.143Z,52.40
2023-03-12T11:27:44.395Z,52.40
2023-03-12T11:30:11.807Z,52.40
2023-03-12T11:32:42.669Z,52.40
2023-03-12T11:35:10.006Z,52.40
2023-03-12T11:37:40.610Z,53.00
2023-03-12T11:40:18.019Z,52.40
2023-03-12T11:42:44.812Z,52.40
2023-03-12T11:45:17.844Z,53.00
2023-03-12T11:47:48.137Z,52.40
2023-03-12T11:50:17.973Z,52.50
2023-03-12T11:52:44.720Z,52.40
2023-03-12T11:55:30.142Z,52.40
2023-03-12T11:58:01.171Z,52.40
2023-03-12T12:00:32.800Z,52.40
2023-03-12T12:03:04.514Z,52.40
2023-03-12T12:05:31.299Z,52.40
2023-03-12T12:08:01.180Z,52.40
2023-03-12T12:10:29.370Z,52.50
2023-03-12T12:12:59.118Z,52.50
2023-03-12T12:15:47.137Z,52.40
2023-03-12T12:18:14.173Z,52.40
2023-03-12T12:20:46.033Z,52.50
2023-03-12T12:23:13.744Z,52.50
2023-03-12T12:25:43.558Z,52.50
2023-03-12T12:28:20.313Z,52.40
2023-03-12T12:31:05.158Z,52.50
2023-03-12T12:33:51.966Z,52.50
2023-03-12T12:36:19.128Z,52.50
2023-03-12T12:38:56.297Z,52.40
2023-03-12T12:41:23.025Z,52.40
2023-03-12T12:43:50.479Z,52.40
2023-03-12T12:46:18.384Z,52.50
2023-03-12T12:48:55.199Z,52.50
2023-03-12T12:51:25.916Z,52.40
2023-03-12T12:54:13.094Z,53.00
2023-03-12T12:56:47.871Z,52.40
2023-03-12T12:59:27.450Z,52.40
2023-03-12T13:01:55.123Z,52.40
2023-03-12T13:04:26.192Z,52.30
2023-03-12T13:07:08.133Z,52.40
2023-03-12T13:09:35.929Z,52.40
2023-03-12T13:12:29.282Z,52.40
2023-03-12T13:14:56.403Z,52.40
2023-03-12T13:17:35.880Z,52.40
2023-03-12T13:20:13.743Z,52.30
2023-03-12T13:22:52.924Z,52.40
2023-03-12T13:25:38.552Z,52.40
2023-03-12T13:28:24.076Z,52.40
2023-03-12T13:30:51.248Z,52.40
2023-03-12T13:33:19.305Z,52.50
2023-03-12T13:36:05.090Z,52.50
2023-03-12T13:38:35.733Z,52.40
2023-03-12T13:41:02.736Z,52.40
2023-03-12T13:43:36.093Z,52.40
2023-03-12T13:46:07.367Z,52.30
2023-03-12T13:48:34.872Z,52.40
2023-03-12T13:51:02.852Z,52.50
2023-03-12T13:53:33.588Z,52.40
2023-03-12T13:56:09.689Z,52.40
2023-03-12T13:59:02.873Z,52.40
2023-03-12T14:01:30.681Z,52.30
2023-03-12T14:03:59.128Z,53.00
2023-03-12T14:06:26.602Z,52.40
2023-03-12T14:09:12.282Z,52.40
2023-03-12T14:11:51.571Z,52.30
2023-03-12T14:14:18.299Z,52.40
2023-03-12T14:16:46.226Z,52.30
2023-03-12T14:19:21.414Z,52.40
2023-03-12T14:21:48.499Z,52.40
2023-03-12T14:24:18.478Z,52.40
2023-03-12T14:26:45.437Z,52.40
2023-03-12T14:29:23.319Z,51.90
2023-03-12T14:31:53.386Z,52.30
2023-03-12T14:34:32.664Z,52.40
2023-03-12T14:37:40.056Z,52.40
2023-03-12T14:40:22.197Z,52.50
2023-03-12T14:43:03.912Z,52.00
2023-03-12T14:45:37.596Z,52.50
2023-03-12T14:48:07.017Z,52.40
2023-03-12T14:53:24.737Z,52.30
2023-03-12T14:56:05.464Z,52.30
2023-03-12T14:58:32.748Z,52.30
2023-03-12T15:01:04.835Z,52.40
2023-03-12T15:03:38.165Z,52.40
2023-03-12T15:06:23.569Z,52.40
2023-03-12T15:08:50.688Z,52.40
2023-03-12T15:11:21.681Z,52.40
2023-03-12T15:13:49.031Z,52.50
2023-03-12T15:16:16.186Z,52.50
2023-03-12T15:18:43.032Z,52.40
2023-03-12T15:21:11.129Z,52.40
2023-03-12T15:23:38.423Z,52.50
2023-03-12T15:26:11.653Z,52.50
2023-03-12T15:29:10.592Z,52.50
2023-03-12T15:31:44.603Z,52.50
2023-03-12T15:34:12.066Z,52.50
2023-03-12T15:36:45.566Z,52.50
2023-03-12T15:39:21.807Z,52.50
2023-03-12T15:41:51.674Z,52.40
2023-03-12T15:44:18.684Z,52.50
2023-03-12T15:46:49.154Z,52.30
2023-03-12T15:49:32.313Z,52.30
2023-03-12T15:52:18.051Z,52.50
2023-03-12T15:55:14.448Z,52.50
2023-03-12T15:57:48.257Z,52.50
2023-03-12T16:00:15.262Z,52.50
2023-03-12T16:02:58.285Z,53.10
2023-03-12T16:05:28.000Z,52.50
2023-03-12T16:07:55.049Z,52.50
2023-03-12T16:10:22.130Z,52.30
2023-03-12T16:12:49.255Z,52.40
2023-03-12T16:15:23.265Z,52.40
2023-03-12T16:17:49.983Z,52.40
2023-03-12T16:20:17.837Z,52.40
2023-03-12T16:22:45.205Z,52.50
2023-03-12T16:25:13.213Z,52.50
2023-03-12T16:27:43.918Z,52.50
2023-03-12T16:30:18.164Z,52.40
2023-03-12T16:32:44.952Z,52.60
2023-03-12T16:35:13.070Z,52.50
2023-03-12T16:37:40.147Z,52.50
2023-03-12T16:40:16.331Z,52.50
2023-03-12T16:42:49.106Z,52.50
2023-03-12T16:45:16.165Z,52.60
2023-03-12T16:47:43.028Z,52.50
2023-03-12T16:50:13.005Z,52.50
2023-03-12T16:52:39.728Z,52.70
2023-03-12T16:55:06.693Z,52.60
2023-03-12T16:57:34.135Z,52.60
2023-03-12T17:00:03.295Z,52.70
2023-03-12T17:02:30.074Z,52.60
2023-03-12T17:04:56.822Z,52.50
2023-03-12T17:07:23.560Z,52.50
2023-03-12T17:09:56.504Z,52.70
2023-03-12T17:12:30.356Z,52.60
2023-03-12T17:14:57.406Z,52.70
2023-03-12T17:17:24.169Z,52.60
2023-03-12T17:19:52.109Z,52.80
2023-03-12T17:22:19.529Z,52.80
2023-03-12T17:24:47.242Z,52.80
2023-03-12T17:27:15.486Z,52.70
2023-03-12T17:29:42.314Z,52.70
2023-03-12T17:32:09.118Z,52.70
2023-03-12T17:34:35.833Z,52.70
2023-03-12T17:37:02.724Z,52.90
2023-03-12T17:39:38.692Z,52.80
2023-03-12T17:42:11.650Z,52.80
2023-03-12T17:44:39.560Z,52.90
2023-03-12T17:47:06.449Z,52.80
2023-03-12T17:49:33.295Z,52.90
2023-03-12T17:52:06.336Z,53.00
2023-03-12T17:54:39.864Z,52.90
2023-03-12T17:57:06.593Z,52.90
2023-03-12T17:59:33.328Z,52.80
2023-03-12T18:02:00.167Z,53.00
2023-03-12T18:04:30.041Z,53.00
2023-03-12T18:06:56.778Z,53.00
2023-03-12T18:09:26.737Z,53.00
2023-03-12T18:11:53.463Z,53.00
2023-03-12T18:14:26.388Z,53.00
2023-03-12T18:16:54.141Z,53.00
2023-03-12T18:19:20.875Z,53.00
2023-03-12T18:21:48.973Z,53.00
2023-03-12T18:24:15.717Z,53.00
2023-03-12T18:26:42.537Z,53.00
2023-03-12T18:29:09.311Z,53.00
2023-03-12T18:31:36.310Z,53.00
2023-03-12T18:34:03.319Z,53.00
2023-03-12T18:36:33.264Z,53.00
2023-03-12T18:39:04.460Z,53.10
2023-03-12T18:41:33.052Z,53.60
2023-03-12T18:44:00.585Z,53.00
2023-03-12T18:46:27.714Z,52.90
2023-03-12T18:48:54.600Z,53.00
2023-03-12T18:51:21.302Z,53.00
2023-03-12T18:53:48.084Z,53.00
2023-03-12T18:56:14.866Z,53.00
2023-03-12T18:58:41.654Z,53.10
2023-03-12T19:01:08.496Z,53.10
2023-03-12T19:03:36.566Z,53.10
2023-03-12T19:06:04.071Z,52.40
2023-03-12T19:08:40.125Z,52.30
2023-03-12T19:11:13.727Z,52.60
2023-03-12T19:13:40.539Z,53.40
2023-03-12T19:16:10.985Z,52.80
2023-03-12T19:18:37.974Z,53.60
2023-03-12T19:21:05.267Z,53.70
2023-03-12T19:23:33.023Z,53.50
2023-03-12T19:26:00.828Z,53.50
2023-03-12T19:28:28.581Z,53.50
2023-03-12T19:30:59.010Z,54.00
2023-03-12T19:33:25.785Z,53.40
2023-03-12T19:35:53.063Z,53.30
2023-03-12T19:38:19.817Z,53.20
2023-03-12T19:40:50.147Z,53.20
2023-03-12T19:43:17.188Z,53.00
2023-03-12T19:45:44.024Z,53.00
2023-03-12T19:48:11.613Z,53.00
2023-03-12T19:50:38.391Z,53.00
2023-03-12T19:53:05.110Z,53.00
2023-03-12T19:55:31.904Z,52.90
2023-03-12T19:57:58.606Z,53.00
2023-03-12T20:00:25.423Z,52.90
2023-03-12T20:02:52.227Z,53.00
2023-03-12T20:05:18.984Z,52.90
2023-03-12T20:07:46.786Z,52.90
2023-03-12T20:10:13.559Z,52.90
2023-03-12T20:12:40.319Z,52.80
2023-03-12T20:15:13.474Z,52.90
2023-03-12T20:17:40.142Z,52.80
2023-03-12T20:20:08.916Z,52.80
2023-03-12T20:22:36.523Z,52.80
2023-03-12T20:25:03.849Z,52.80
2023-03-12T20:27:31.025Z,52.80
2023-03-12T20:29:57.744Z,52.80
2023-03-12T20:32:28.759Z,52.70
2023-03-12T20:34:55.574Z,52.80
2023-03-12T20:37:22.252Z,52.80
2023-03-12T20:39:48.952Z,52.60
2023-03-12T20:42:15.699Z,52.60
2023-03-12T20:44:42.401Z,52.50
2023-03-12T20:47:09.091Z,52.50
2023-03-12T20:49:42.200Z,52.50
2023-03-12T20:52:08.902Z,52.50
2023-03-12T20:54:35.730Z,52.50
2023-03-12T20:57:05.468Z,52.50
2023-03-12T20:59:35.176Z,52.50
2023-03-12T21:02:01.905Z,52.50
2023-03-12T21:04:28.890Z,52.50
2023-03-12T21:06:56.306Z,52.50
2023-03-12T21:09:23.456Z,52.50
2023-03-12T21:11:50.384Z,52.50
2023-03-12T21:14:17.121Z,52.50
2023-03-12T21:16:50.286Z,52.50
2023-03-12T21:19:17.149Z,52.50
2023-03-12T21:21:46.960Z,52.50
2023-03-12T21:24:13.651Z,52.50
2023-03-12T21:26:40.311Z,52.50
2023-03-12T21:29:07.030Z,52.50
2023-03-12T21:31:33.856Z,52.50
2023-03-12T21:34:00.517Z,52.50
2023-03-12T21:36:30.447Z,52.50
2023-03-12T21:38:57.158Z,52.50
2023-03-12T21:41:30.146Z,52.50
2023-03-12T21:43:56.883Z,52.50
2023-03-12T21:46:27.647Z,52.50
2023-03-12T21:48:54.453Z,52.50
2023-03-12T21:51:22.771Z,52.40
2023-03-12T21:53:55.936Z,52.50
2023-03-12T21:56:22.772Z,52.50
2023-03-12T21:58:49.520Z,52.50
2023-03-12T22:01:16.844Z,52.40
2023-03-12T22:03:44.674Z,52.40
2023-03-12T22:06:17.775Z,52.40
2023-03-12T22:08:44.632Z,52.40
2023-03-12T22:11:11.401Z,52.40
2023-03-12T22:13:38.179Z,52.20
2023-03-12T22:16:06.954Z,52.30
2023-03-12T22:18:35.997Z,52.30
2023-03-12T22:21:03.449Z,52.20
2023-03-12T22:23:30.189Z,52.20
2023-03-12T22:26:03.698Z,52.20
2023-03-12T22:28:36.703Z,52.20
2023-03-12T22:31:04.405Z,52.20
2023-03-12T22:33:31.308Z,52.10
2023-03-12T22:36:03.855Z,52.10
2023-03-12T22:38:30.612Z,52.20
2023-03-12T22:40:57.323Z,52.10
2023-03-12T22:43:27.071Z,52.20
2023-03-12T22:45:56.760Z,52.10
2023-03-12T22:48:26.752Z,52.20
2023-03-12T22:50:53.891Z,52.10
2023-03-12T22:53:26.618Z,52.10
2023-03-12T22:55:57.314Z,52.10
2023-03-12T22:58:24.050Z,52.10
2023-03-12T23:01:10.051Z,52.20
2023-03-12T23:03:37.022Z,52.20
2023-03-12T23:06:03.872Z,52.20
2023-03-12T23:08:30.585Z,52.20
2023-03-12T23:10:58.043Z,52.30
2023-03-12T23:13:28.238Z,52.30
2023-03-12T23:15:54.976Z,52.20
2023-03-12T23:18:21.689Z,52.30
2023-03-12T23:20:58.755Z,52.30
2023-03-12T23:23:25.575Z,52.40
2023-03-12T23:25:53.129Z,52.10
2023-03-12T23:28:19.813Z,52.20
2023-03-12T23:30:53.701Z,52.20
2023-03-12T23:33:20.423Z,52.20
2023-03-12T23:35:56.792Z,52.80
2023-03-12T23:38:23.714Z,52.20
2023-03-12T23:40:53.454Z,52.20
2023-03-12T23:43:20.320Z,52.20
2023-03-12T23:45:47.071Z,52.10
2023-03-12T23:48:13.808Z,52.10
2023-03-12T23:50:41.321Z,52.10
2023-03-12T23:53:08.057Z,52.10
2023-03-12T23:55:34.761Z,52.10
2023-03-12T23:58:01.465Z,52.10
